Time;durP1;ratioP1;P1;durP2;ratioP2;P2;SDS_P1;SDS_P2;PMS_P1;PMS_P2;Temp;Humidity;BMP_temperature;BMP_pressure;BME280_temperature;BME280_humidity;BME280_pressure;Samples;Min_cycle;Max_cycle;Signal;HPM_P1;HPM_P2
2021/01/13 00:01:45;;;;;;;32.67;21.70;;;4.40;68.60;;;;;;5080316;28;20040;-55
2021/01/13 00:04:11;;;;;;;34.47;22.33;;;4.40;68.60;;;;;;5081340;28;20048;-56
2021/01/13 00:06:37;;;;;;;33.77;20.77;;;4.30;69.00;;;;;;5076929;28;20119;-55
2021/01/13 00:09:03;;;;;;;33.07;22.77;;;4.40;68.90;;;;;;5079427;28;20126;-57
2021/01/13 00:11:30;;;;;;;33.53;22.13;;;4.40;69.10;;;;;;5077729;28;20036;-57
2021/01/13 00:13:55;;;;;;;35.23;23.73;;;4.50;68.80;;;;;;5083633;28;20067;-57
2021/01/13 00:16:21;;;;;;;36.20;23.83;;;4.40;68.80;;;;;;5076424;28;20078;-54
2021/01/13 00:18:49;;;;;;;35.40;22.87;;;4.40;68.90;;;;;;5081066;28;20062;-56
2021/01/13 00:21:16;;;;;;;33.33;22.33;;;4.40;68.80;;;;;;5064990;28;20439;-55
2021/01/13 00:23:46;;;;;;;34.90;22.00;;;4.40;68.70;;;;;;5082117;28;20369;-57
2021/01/13 00:26:25;;;;;;;39.87;21.77;;;4.40;67.70;;;;;;5075814;28;20461;-55
2021/01/13 00:28:52;;;;;;;33.03;21.67;;;4.30;68.00;;;;;;5080256;28;20071;-59
2021/01/13 00:31:18;;;;;;;35.73;21.37;;;4.40;68.80;;;;;;5076909;28;20042;-57
2021/01/13 00:33:51;;;;;;;35.03;20.97;;;4.30;68.40;;;;;;5081046;28;20105;-55
2021/01/13 00:36:23;;;;;;;32.10;21.50;;;4.30;69.10;;;;;;5074245;28;20033;-57
2021/01/13 00:38:50;;;;;;;32.00;20.50;;;4.30;68.70;;;;;;5079041;28;20182;-56
2021/01/13 00:41:16;;;;;;;33.20;21.53;;;4.40;68.30;;;;;;5056018;28;20032;-56
2021/01/13 00:43:42;;;;;;;35.50;22.53;;;4.50;68.70;;;;;;5080945;28;20359;-57
2021/01/13 00:46:07;;;;;;;35.77;21.57;;;4.50;68.60;;;;;;5075046;28;20052;-57
2021/01/13 00:48:33;;;;;;;36.93;22.50;;;4.40;68.20;;;;;;5078527;28;20051;-55
2021/01/13 00:50:59;;;;;;;33.87;22.47;;;4.30;67.80;;;;;;5082536;28;20126;-53
2021/01/13 00:53:25;;;;;;;36.83;21.90;;;4.30;68.50;;;;;;5079531;28;20160;-55
2021/01/13 00:55:51;;;;;;;35.67;22.17;;;4.30;68.70;;;;;;5081739;28;20143;-58
2021/01/13 00:58:16;;;;;;;31.17;20.70;;;4.30;69.10;;;;;;5077187;28;20063;-55
2021/01/13 01:00:42;;;;;;;33.23;22.57;;;4.30;68.40;;;;;;5079618;28;20541;-56
2021/01/13 01:03:08;;;;;;;29.37;21.43;;;4.30;69.00;;;;;;5075167;28;20028;-56
2021/01/13 01:05:33;;;;;;;32.27;23.23;;;4.30;67.90;;;;;;5084331;28;20043;-55
2021/01/13 01:08:00;;;;;;;36.47;22.37;;;4.40;68.60;;;;;;5080217;28;20067;-56
2021/01/13 01:10:29;;;;;;;34.07;21.60;;;4.30;68.20;;;;;;5080809;28;20117;-56
2021/01/13 01:12:55;;;;;;;31.00;23.17;;;4.30;68.30;;;;;;5077632;28;20118;-56
2021/01/13 01:15:21;;;;;;;32.43;22.37;;;4.30;68.60;;;;;;5080497;28;20425;-58
2021/01/13 01:17:47;;;;;;;32.73;22.70;;;4.40;68.90;;;;;;5078490;28;20051;-58
2021/01/13 01:20:13;;;;;;;32.83;22.63;;;4.30;68.80;;;;;;5087930;28;20412;-57
2021/01/13 01:22:53;;;;;;;31.90;22.07;;;4.30;68.90;;;;;;5071700;28;21128;-57
2021/01/13 01:25:20;;;;;;;36.07;23.00;;;4.40;69.30;;;;;;5060218;28;20055;-57
2021/01/13 01:27:50;;;;;;;37.80;21.87;;;4.20;68.30;;;;;;5077205;28;20050;-57
2021/01/13 01:30:16;;;;;;;34.47;22.67;;;4.30;69.20;;;;;;5080226;28;20084;-57
2021/01/13 01:32:42;;;;;;;36.23;23.30;;;4.20;68.10;;;;;;5077545;28;20080;-56
2021/01/13 01:35:09;;;;;;;34.43;22.10;;;4.30;68.70;;;;;;5079060;28;20112;-55
2021/01/13 01:37:35;;;;;;;35.00;21.90;;;4.20;69.00;;;;;;5078805;28;20143;-54
2021/01/13 01:40:03;;;;;;;36.83;22.77;;;4.20;68.30;;;;;;5075062;28;20040;-57
2021/01/13 01:42:29;;;;;;;33.57;22.07;;;4.20;68.70;;;;;;5078383;28;20040;-55
2021/01/13 01:44:55;;;;;;;36.13;23.13;;;4.20;68.70;;;;;;5073688;28;20511;-55
2021/01/13 01:47:50;;;;;;;32.57;22.33;;;4.30;68.70;;;;;;5082768;28;20044;-56
2021/01/13 01:50:21;;;;;;;31.50;21.55;;;4.20;68.50;;;;;;5026366;28;20040;-52
2021/01/13 01:53:01;;;;;;;31.53;21.50;;;4.20;68.60;;;;;;5076761;28;20067;-56
2021/01/13 01:55:31;;;;;;;31.20;21.80;;;4.30;68.90;;;;;;5048397;28;20482;-55
2021/01/13 01:58:02;;;;;;;31.17;21.67;;;4.30;68.90;;;;;;5077682;28;20044;-58
2021/01/13 02:00:31;;;;;;;34.80;21.17;;;4.20;68.00;;;;;;5073342;28;20626;-56
2021/01/13 02:03:13;;;;;;;34.07;22.27;;;4.20;68.70;;;;;;5080422;28;20115;-57
2021/01/13 02:05:41;;;;;;;36.50;22.53;;;4.20;68.70;;;;;;5077998;28;20059;-53
2021/01/13 02:08:20;;;;;;;31.50;22.20;;;4.30;69.20;;;;;;5079969;28;20047;-56
2021/01/13 02:10:48;;;;;;;32.30;22.83;;;4.30;69.20;;;;;;5078122;28;20036;-54
2021/01/13 02:13:15;;;;;;;33.10;22.20;;;4.30;68.90;;;;;;5078890;28;20444;-57
2021/01/13 02:15:41;;;;;;;39.50;24.83;;;4.30;68.60;;;;;;5074955;28;20483;-53
2021/01/13 02:18:14;;;;;;;30.33;21.43;;;4.20;68.90;;;;;;5076249;28;20091;-53
2021/01/13 02:20:44;;;;;;;38.67;23.83;;;4.30;68.80;;;;;;5074248;28;20499;-56
2021/01/13 02:23:28;;;;;;;33.90;22.23;;;4.20;69.40;;;;;;5077088;28;20039;-57
2021/01/13 02:26:22;;;;;;;33.13;22.38;;;4.30;68.70;;;;;;5075866;28;20046;-57
2021/01/13 02:29:08;;;;;;;31.13;22.33;;;4.30;69.60;;;;;;5076994;28;20054;-56
2021/01/13 02:31:45;;;;;;;32.90;22.83;;;4.20;69.50;;;;;;5036041;28;20028;-55
2021/01/13 02:34:29;;;;;;;35.23;22.43;;;4.10;69.70;;;;;;5077933;28;20556;-55
2021/01/13 02:37:27;;;;;;;34.60;24.47;;;4.00;68.90;;;;;;5071029;28;20149;-57
2021/01/13 02:39:55;;;;;;;34.23;22.57;;;4.00;69.70;;;;;;5073426;28;20052;-55
2021/01/13 02:42:23;;;;;;;37.03;23.53;;;4.00;69.90;;;;;;5075751;28;20047;-60
2021/01/13 02:45:14;;;;;;;34.77;22.77;;;3.90;69.80;;;;;;5080629;28;20577;-52
2021/01/13 02:47:46;;;;;;;33.90;22.33;;;4.00;68.70;;;;;;5049314;28;20497;-57
2021/01/13 02:50:31;;;;;;;31.83;23.23;;;4.00;69.90;;;;;;5081825;28;20049;-56
2021/01/13 02:53:14;;;;;;;31.80;22.50;;;4.00;69.90;;;;;;5040205;28;20041;-56
2021/01/13 02:55:46;;;;;;;30.10;21.93;;;3.80;68.20;;;;;;5082177;28;20472;-56
2021/01/13 02:58:31;;;;;;;35.30;23.50;;;4.00;70.10;;;;;;5078584;28;20051;-57
2021/01/13 03:00:58;;;;;;;30.15;22.02;;;4.00;70.00;;;;;;5055092;28;20048;-57
2021/01/13 03:03:23;;;;;;;34.03;24.03;;;3.90;69.90;;;;;;5077379;28;20040;-57
2021/01/13 03:05:50;;;;;;;36.13;24.40;;;4.00;70.30;;;;;;5086377;28;20557;-56
2021/01/13 03:08:16;;;;;;;35.43;23.03;;;4.00;70.30;;;;;;5079835;28;20089;-57
2021/01/13 03:10:45;;;;;;;36.67;24.17;;;4.00;70.20;;;;;;5085891;28;20083;-57
2021/01/13 03:13:11;;;;;;;34.30;23.03;;;4.00;70.40;;;;;;5075773;28;20040;-55
2021/01/13 03:15:38;;;;;;;33.83;24.07;;;4.00;70.20;;;;;;5072406;28;20448;-56
2021/01/13 03:18:27;;;;;;;34.70;22.70;;;4.00;70.80;;;;;;5078026;28;20048;-55
2021/01/13 03:21:08;;;;;;;34.70;23.17;;;3.90;71.00;;;;;;5073745;28;20043;-56
2021/01/13 03:24:04;;;;;;;35.27;23.70;;;3.90;71.30;;;;;;5075769;28;20583;-57
2021/01/13 03:26:38;;;;;;;;;;;3.90;72.20;;;;;;5052865;28;20063;-57
2021/01/13 03:29:04;;;;;;;34.63;22.93;;;3.80;72.10;;;;;;5079029;28;19912;-56
2021/01/13 03:31:37;;;;;;;32.07;23.03;;;3.80;71.40;;;;;;5077285;28;20032;-56
2021/01/13 03:34:22;;;;;;;33.13;22.83;;;3.80;71.20;;;;;;5070525;28;20044;-56
2021/01/13 03:37:21;;;;;;;32.78;23.70;;;3.80;71.90;;;;;;5082619;28;20028;-56
2021/01/13 03:39:49;;;;;;;33.40;22.20;;;3.80;71.80;;;;;;5039420;28;20488;-53
2021/01/13 03:42:19;;;;;;;36.20;23.63;;;3.80;72.50;;;;;;5083138;28;20028;-56
2021/01/13 03:44:46;;;;;;;36.07;22.90;;;3.80;72.10;;;;;;5074003;28;20233;-57
2021/01/13 03:47:12;;;;;;;31.57;21.50;;;3.70;71.30;;;;;;5079928;28;20044;-56
2021/01/13 03:49:45;;;;;;;29.97;22.67;;;3.70;71.70;;;;;;5079505;28;20093;-54
2021/01/13 03:52:12;;;;;;;35.83;23.30;;;3.70;71.90;;;;;;5081261;28;20044;-57
2021/01/13 03:54:38;;;;;;;34.03;22.93;;;3.70;71.80;;;;;;5077458;28;20551;-57
2021/01/13 03:57:07;;;;;;;34.90;24.07;;;3.80;72.20;;;;;;5082965;28;20044;-53
2021/01/13 03:59:51;;;;;;;34.07;23.47;;;3.80;72.00;;;;;;5076620;28;20047;-55
2021/01/13 04:02:22;;;;;;;32.17;22.23;;;3.90;72.00;;;;;;5082640;28;20093;-55
2021/01/13 04:05:03;;;;;;;32.27;22.10;;;3.70;71.70;;;;;;5076439;28;20124;-56
2021/01/13 04:07:38;;;;;;;31.97;21.60;;;3.90;71.60;;;;;;5057572;28;20387;-56
2021/01/13 04:10:10;;;;;;;;;;;3.90;71.60;;;;;;5078319;28;20127;-57
2021/01/13 04:12:54;;;;;;;29.40;19.77;;;3.80;71.50;;;;;;5080649;28;19915;-55
2021/01/13 04:15:20;;;;;;;37.97;22.00;;;3.90;71.70;;;;;;5060103;28;20043;-56
2021/01/13 04:17:47;;;;;;;32.20;21.03;;;3.80;71.20;;;;;;5081421;28;20040;-56
2021/01/13 04:20:13;;;;;;;27.43;19.23;;;3.90;71.80;;;;;;5078360;28;20421;-56
2021/01/13 04:22:39;;;;;;;32.97;21.13;;;3.90;71.60;;;;;;5080447;28;20625;-57
2021/01/13 04:25:05;;;;;;;30.07;20.97;;;3.90;71.30;;;;;;5076510;28;20556;-56
2021/01/13 04:27:31;;;;;;;32.07;20.23;;;3.90;71.80;;;;;;5079431;28;20040;-55
2021/01/13 04:29:57;;;;;;;28.90;19.87;;;3.90;71.30;;;;;;5078833;28;20109;-55
2021/01/13 04:32:23;;;;;;;30.77;20.70;;;4.00;71.60;;;;;;5079579;28;20109;-55
2021/01/13 04:34:49;;;;;;;27.77;18.90;;;4.00;71.30;;;;;;5079502;28;20058;-57
2021/01/13 04:37:15;;;;;;;30.13;18.20;;;4.00;71.50;;;;;;5077549;28;20089;-58
2021/01/13 04:39:41;;;;;;;23.20;16.97;;;4.00;71.30;;;;;;5079983;28;20044;-56
2021/01/13 04:42:12;;;;;;;29.00;17.33;;;4.10;71.30;;;;;;5077506;28;20102;-57
2021/01/13 04:45:03;;;;;;;26.23;17.43;;;4.10;71.00;;;;;;5075274;28;20047;-57
2021/01/13 04:48:02;;;;;;;27.53;17.27;;;4.10;71.20;;;;;;5051094;28;20043;-57
2021/01/13 04:50:33;;;;;;;26.63;17.87;;;4.20;71.40;;;;;;5051335;28;20436;-57
2021/01/13 04:53:00;;;;;;;21.03;14.97;;;4.10;71.90;;;;;;5083371;28;20082;-55
2021/01/13 04:55:27;;;;;;;25.27;16.27;;;4.00;71.60;;;;;;5075403;28;20477;-56
2021/01/13 04:58:20;;;;;;;22.70;14.67;;;4.00;70.50;;;;;;5056774;28;20052;-57
2021/01/13 05:01:04;;;;;;;23.73;15.97;;;4.00;71.40;;;;;;5080120;28;20032;-55
2021/01/13 05:03:39;;;;;;;19.20;14.00;;;4.10;71.90;;;;;;5054319;28;20045;-56
2021/01/13 05:06:13;;;;;;;21.02;14.93;;;4.10;71.10;;;;;;5076638;28;20039;-58
2021/01/13 05:08:40;;;;;;;19.85;13.60;;;4.10;71.70;;;;;;5078039;28;20032;-55
2021/01/13 05:11:09;;;;;;;20.93;13.97;;;4.00;71.40;;;;;;5080594;28;20407;-54
2021/01/13 05:13:35;;;;;;;19.03;13.70;;;4.10;71.90;;;;;;5074660;28;20044;-56
2021/01/13 05:16:09;;;;;;;18.30;14.27;;;4.20;73.20;;;;;;5064559;28;20055;-56
2021/01/13 05:18:50;;;;;;;22.15;13.73;;;4.30;73.30;;;;;;5059195;28;20056;-56
2021/01/13 05:21:26;;;;;;;18.40;13.30;;;4.30;73.00;;;;;;5079005;28;20044;-57
2021/01/13 05:23:56;;;;;;;21.23;14.87;;;4.30;72.00;;;;;;5072391;28;20051;-60
2021/01/13 05:26:26;;;;;;;24.87;14.67;;;4.30;71.80;;;;;;5079785;28;20515;-57
2021/01/13 05:29:04;;;;;;;23.33;15.03;;;4.40;72.60;;;;;;5077234;28;20530;-57
2021/01/13 05:31:36;;;;;;;20.40;14.10;;;4.40;72.20;;;;;;5078720;28;20032;-56
2021/01/13 05:34:03;;;;;;;20.90;15.13;;;4.30;71.70;;;;;;5077495;28;20385;-57
2021/01/13 05:36:30;;;;;;;24.30;14.77;;;4.30;71.70;;;;;;5075925;28;20159;-57
2021/01/13 05:39:10;;;;;;;21.70;15.43;;;4.30;72.60;;;;;;5074003;28;20051;-56
2021/01/13 05:41:38;;;;;;;22.60;14.90;;;4.30;72.30;;;;;;5079877;28;20137;-54
2021/01/13 05:44:04;;;;;;;21.17;14.53;;;4.30;72.20;;;;;;5073509;28;20043;-55
2021/01/13 05:46:46;;;;;;;24.67;16.43;;;4.30;73.00;;;;;;5081257;28;20028;-57
2021/01/13 05:49:12;;;;;;;24.27;16.07;;;4.30;72.50;;;;;;5076326;28;20040;-56
2021/01/13 05:51:40;;;;;;;25.93;16.50;;;4.30;72.80;;;;;;5063372;28;20039;-56
2021/01/13 05:54:11;;;;;;;28.50;17.63;;;4.30;72.40;;;;;;5075612;28;20028;-56
2021/01/13 05:56:39;;;;;;;31.10;16.93;;;4.20;72.50;;;;;;5081192;28;20036;-55
2021/01/13 05:59:06;;;;;;;23.20;16.40;;;4.30;72.90;;;;;;5078343;28;20048;-56
2021/01/13 06:01:57;;;;;;;29.07;16.73;;;4.20;72.70;;;;;;5077903;28;20032;-57
2021/01/13 06:04:24;;;;;;;25.67;16.07;;;4.30;73.00;;;;;;5072894;28;21012;-56
2021/01/13 06:07:05;;;;;;;22.10;15.17;;;4.20;72.30;;;;;;5080882;28;20063;-56
2021/01/13 06:09:41;;;;;;;24.67;15.67;;;4.30;72.60;;;;;;5051757;28;20119;-57
2021/01/13 06:12:15;;;;;;;23.07;14.80;;;4.30;71.80;;;;;;5078036;28;20042;-57
2021/01/13 06:14:41;;;;;;;24.23;15.93;;;4.30;72.40;;;;;;5076719;28;20436;-57
2021/01/13 06:17:16;;;;;;;22.20;15.50;;;4.30;72.40;;;;;;5057738;28;20090;-53
2021/01/13 06:19:48;;;;;;;25.00;15.73;;;4.30;71.90;;;;;;5073124;28;20093;-56
2021/01/13 06:22:14;;;;;;;25.57;15.60;;;4.30;72.00;;;;;;5079612;28;20071;-57
2021/01/13 06:24:40;;;;;;;22.47;15.53;;;4.20;71.70;;;;;;5060719;28;20043;-55
2021/01/13 06:27:22;;;;;;;21.60;15.07;;;4.20;72.10;;;;;;5077558;28;20412;-56
2021/01/13 06:29:53;;;;;;;20.10;15.03;;;4.30;72.60;;;;;;5076281;28;20035;-57
2021/01/13 06:32:28;;;;;;;22.33;14.57;;;4.30;72.50;;;;;;5082536;28;20058;-57
2021/01/13 06:35:14;;;;;;;21.30;13.53;;;4.30;72.50;;;;;;5073972;28;20036;-55
2021/01/13 06:37:49;;;;;;;19.33;14.43;;;4.20;72.60;;;;;;5077129;28;20070;-57
2021/01/13 06:40:20;;;;;;;19.23;14.07;;;4.20;72.50;;;;;;5078400;28;20040;-56
2021/01/13 06:42:45;;;;;;;22.63;14.97;;;4.20;73.00;;;;;;5080148;28;20531;-56
2021/01/13 06:45:12;;;;;;;21.03;14.00;;;4.20;72.60;;;;;;5073737;28;20301;-54
2021/01/13 06:47:55;;;;;;;21.17;14.43;;;4.20;73.10;;;;;;5078613;28;20040;-57
2021/01/13 06:50:40;;;;;;;22.87;15.27;;;4.30;73.30;;;;;;5075036;28;20032;-58
2021/01/13 06:53:11;;;;;;;24.67;14.80;;;4.30;72.90;;;;;;5050168;28;20079;-58
2021/01/13 06:55:41;;;;;;;19.10;13.97;;;4.30;73.30;;;;;;5074835;28;20071;-56
2021/01/13 06:58:13;;;;;;;21.73;14.20;;;4.30;73.20;;;;;;5076548;28;20056;-55
2021/01/13 07:00:40;;;;;;;19.83;14.10;;;4.40;73.20;;;;;;5075603;28;20113;-57
2021/01/13 07:03:30;;;;;;;20.97;14.83;;;4.40;73.30;;;;;;5081548;28;20044;-56
2021/01/13 07:06:00;;;;;;;21.77;12.80;;;4.40;74.00;;;;;;5073162;28;20584;-55
2021/01/13 07:08:26;;;;;;;20.57;12.93;;;4.40;73.90;;;;;;5076033;28;20052;-54
2021/01/13 07:11:08;;;;;;;22.63;13.73;;;4.40;74.20;;;;;;5074888;28;20093;-56
2021/01/13 07:13:47;;;;;;;18.50;13.20;;;4.40;74.20;;;;;;5049034;28;20051;-57
2021/01/13 07:16:15;;;;;;;23.47;12.97;;;4.50;74.90;;;;;;5068240;28;20102;-57
2021/01/13 07:18:41;;;;;;;19.50;13.30;;;4.50;73.70;;;;;;5076086;28;20071;-55
2021/01/13 07:21:08;;;;;;;23.60;13.63;;;4.50;74.00;;;;;;5075656;28;20062;-54
2021/01/13 07:23:35;;;;;;;24.93;14.47;;;4.50;73.80;;;;;;5074453;28;20035;-55
2021/01/13 07:26:01;;;;;;;20.87;13.43;;;4.50;73.90;;;;;;5081186;28;20081;-52
2021/01/13 07:28:27;;;;;;;20.40;13.70;;;4.50;74.10;;;;;;5070998;28;20059;-57
2021/01/13 07:30:54;;;;;;;19.03;11.73;;;4.50;74.20;;;;;;5075662;28;20039;-59
2021/01/13 07:33:20;;;;;;;17.20;12.20;;;4.60;74.30;;;;;;5074809;28;20044;-58
2021/01/13 07:35:48;;;;;;;16.53;10.63;;;4.60;74.50;;;;;;5083754;28;20043;-56
2021/01/13 07:38:21;;;;;;;14.37;10.93;;;4.60;74.20;;;;;;5077404;28;20096;-56
2021/01/13 07:41:06;;;;;;;14.40;9.60;;;4.60;74.10;;;;;;5085792;28;20492;-57
2021/01/13 07:44:10;;;;;;;21.45;9.80;;;4.70;74.80;;;;;;5052168;28;20486;-56
2021/01/13 07:46:36;;;;;;;15.73;10.30;;;4.80;73.80;;;;;;5057553;28;20039;-55
2021/01/13 07:49:17;;;;;;;17.33;9.97;;;4.80;74.00;;;;;;5076654;28;20036;-57
2021/01/13 07:51:54;;;;;;;13.67;9.13;;;4.90;73.80;;;;;;5082340;28;20028;-57
2021/01/13 07:54:33;;;;;;;17.53;9.40;;;4.90;74.00;;;;;;5074536;28;20028;-56
2021/01/13 07:57:01;;;;;;;16.43;9.53;;;5.00;73.80;;;;;;5056714;28;20048;-55
2021/01/13 07:59:42;;;;;;;14.47;9.53;;;5.00;74.30;;;;;;5076638;28;20080;-57
2021/01/13 08:02:25;;;;;;;19.17;9.20;;;5.00;74.20;;;;;;5080950;28;20044;-56
2021/01/13 08:05:03;;;;;;;14.37;8.87;;;5.10;74.00;;;;;;5077138;28;20512;-56
2021/01/13 08:07:40;;;;;;;13.10;8.60;;;5.10;74.10;;;;;;5054427;28;20058;-56
2021/01/13 08:10:07;;;;;;;15.63;9.57;;;5.20;74.00;;;;;;5077326;28;20036;-57
2021/01/13 08:13:05;;;;;;;12.70;8.90;;;5.20;74.00;;;;;;5080033;28;20098;-55
2021/01/13 08:15:57;;;;;;;17.03;9.43;;;5.20;74.60;;;;;;5033016;28;20103;-57
2021/01/13 08:18:45;;;;;;;13.30;8.33;;;5.30;74.90;;;;;;5074970;28;20052;-57
2021/01/13 08:21:24;;;;;;;9.97;6.67;;;5.40;75.20;;;;;;5050544;28;20040;-56
2021/01/13 08:23:51;;;;;;;14.73;7.83;;;5.40;74.60;;;;;;5072956;28;20040;-56
2021/01/13 08:26:18;;;;;;;12.23;7.47;;;5.40;74.70;;;;;;5085920;28;20036;-57
2021/01/13 08:28:50;;;;;;;10.33;6.77;;;5.50;75.00;;;;;;5083144;28;20472;-56
2021/01/13 08:31:26;;;;;;;12.63;7.60;;;5.50;74.70;;;;;;5079122;28;20044;-58
2021/01/13 08:34:10;;;;;;;10.97;7.63;;;5.50;74.90;;;;;;5081440;28;20028;-57
2021/01/13 08:36:50;;;;;;;13.30;8.20;;;5.50;74.80;;;;;;5054330;28;20042;-55
2021/01/13 08:39:16;;;;;;;11.03;7.20;;;5.60;74.70;;;;;;5079004;28;20474;-56
2021/01/13 08:41:45;;;;;;;12.30;7.60;;;5.70;74.50;;;;;;5080123;28;20036;-57
2021/01/13 08:44:18;;;;;;;16.10;7.80;;;5.70;73.70;;;;;;5081370;28;20040;-57
2021/01/13 08:46:45;;;;;;;16.30;8.40;;;5.70;74.40;;;;;;5077984;28;20146;-58
2021/01/13 08:49:20;;;;;;;11.17;7.97;;;5.80;74.00;;;;;;5083064;28;20124;-58
2021/01/13 08:52:18;;;;;;;10.00;7.13;;;5.70;73.60;;;;;;5077271;28;20040;-56
2021/01/13 08:54:44;;;;;;;11.63;7.07;;;5.80;73.60;;;;;;5055269;28;20059;-57
2021/01/13 08:57:12;;;;;;;16.10;8.10;;;5.80;74.20;;;;;;5074062;28;20074;-56
2021/01/13 08:59:43;;;;;;;15.77;7.97;;;5.90;74.40;;;;;;5077813;28;20032;-57
2021/01/13 09:02:13;;;;;;;17.30;9.20;;;6.10;74.90;;;;;;5077896;28;20051;-57
2021/01/13 09:04:58;;;;;;;13.50;8.37;;;7.00;73.00;;;;;;5078787;28;20039;-58
2021/01/13 09:07:29;;;;;;;10.73;7.68;;;7.20;70.10;;;;;;5074088;28;20040;-60
2021/01/13 09:09:55;;;;;;;13.33;8.03;;;6.80;70.60;;;;;;5081677;28;20392;-57
2021/01/13 09:12:43;;;;;;;10.77;7.40;;;6.40;71.30;;;;;;5078347;28;20046;-56
2021/01/13 09:15:08;;;;;;;10.67;7.87;;;6.40;72.00;;;;;;5056620;28;20585;-56
2021/01/13 09:17:49;;;;;;;12.97;7.07;;;6.30;72.20;;;;;;5079280;28;20127;-57
2021/01/13 09:20:22;;;;;;;10.67;6.30;;;6.30;72.30;;;;;;5079877;28;20044;-57
2021/01/13 09:22:56;;;;;;;12.17;6.80;;;6.30;71.40;;;;;;5070812;28;20090;-57
2021/01/13 09:25:45;;;;;;;12.30;7.97;;;6.40;71.60;;;;;;5079982;28;20138;-58
2021/01/13 09:28:18;;;;;;;9.90;5.97;;;6.50;71.00;;;;;;5047397;28;20039;-55
2021/01/13 09:30:44;;;;;;;10.23;6.00;;;6.50;70.00;;;;;;5079557;28;20044;-58
2021/01/13 09:33:12;;;;;;;9.37;6.03;;;6.50;70.20;;;;;;5076913;28;20036;-58
2021/01/13 09:35:58;;;;;;;12.23;5.33;;;6.50;69.80;;;;;;5078073;28;20499;-57
2021/01/13 09:38:39;;;;;;;9.73;5.23;;;6.60;68.70;;;;;;5076085;28;20048;-57
2021/01/13 09:41:09;;;;;;;6.63;4.90;;;6.70;68.80;;;;;;5073447;28;20040;-58
2021/01/13 09:43:45;;;;;;;8.17;6.00;;;6.70;68.40;;;;;;5059205;28;20058;-57
2021/01/13 09:46:20;;;;;;;7.93;5.13;;;6.80;68.80;;;;;;5079848;28;20043;-57
2021/01/13 09:49:00;;;;;;;7.15;5.07;;;6.80;68.70;;;;;;5077696;28;20086;-57
2021/01/13 09:51:27;;;;;;;11.90;5.93;;;6.90;68.80;;;;;;5078920;28;20635;-57
2021/01/13 09:53:54;;;;;;;7.43;5.77;;;6.90;69.40;;;;;;5062396;28;20116;-58
2021/01/13 09:56:21;;;;;;;12.53;6.67;;;7.00;69.30;;;;;;5076276;28;20119;-57
2021/01/13 09:58:51;;;;;;;9.30;6.10;;;7.00;70.30;;;;;;5072712;28;20044;-57
2021/01/13 10:01:20;;;;;;;11.13;6.03;;;7.00;68.70;;;;;;5076471;28;20036;-57
2021/01/13 10:03:48;;;;;;;9.93;6.03;;;7.10;68.20;;;;;;5073501;28;20074;-55
2021/01/13 10:06:19;;;;;;;9.93;5.90;;;7.10;68.30;;;;;;5077006;28;20045;-57
2021/01/13 10:08:45;;;;;;;10.17;6.20;;;7.20;66.90;;;;;;5060146;28;20697;-56
2021/01/13 10:11:12;;;;;;;11.93;6.77;;;7.20;67.40;;;;;;5076265;28;20043;-56
2021/01/13 10:13:39;;;;;;;12.67;7.90;;;7.30;67.10;;;;;;5073339;28;20119;-57
2021/01/13 10:16:06;;;;;;;11.13;7.27;;;7.30;67.50;;;;;;5054305;28;20055;-57
2021/01/13 10:18:32;;;;;;;9.97;6.93;;;7.30;67.30;;;;;;5062064;28;20051;-56
2021/01/13 10:21:00;;;;;;;13.70;8.17;;;7.30;67.80;;;;;;5075765;28;20511;-57
2021/01/13 10:23:30;;;;;;;14.07;8.50;;;7.30;67.70;;;;;;5074164;28;20040;-58
2021/01/13 10:26:07;;;;;;;12.57;9.40;;;7.40;67.40;;;;;;5076572;28;20036;-57
2021/01/13 10:28:34;;;;;;;14.73;10.17;;;7.40;67.30;;;;;;5079155;28;20032;-57
2021/01/13 10:31:00;;;;;;;14.63;10.63;;;7.40;67.40;;;;;;5066292;28;20488;-54
2021/01/13 10:33:43;;;;;;;15.27;10.50;;;7.40;67.60;;;;;;5065435;28;20036;-57
2021/01/13 10:36:24;;;;;;;18.07;10.70;;;7.40;67.50;;;;;;5082425;28;20048;-58
2021/01/13 10:38:50;;;;;;;16.87;11.00;;;7.40;67.20;;;;;;5046135;28;20102;-58
2021/01/13 10:41:27;;;;;;;16.20;10.70;;;7.50;67.90;;;;;;5073479;28;20036;-58
2021/01/13 10:44:00;;;;;;;17.60;9.80;;;7.50;68.10;;;;;;5078008;28;20573;-59
2021/01/13 10:46:29;;;;;;;17.27;11.70;;;7.50;68.00;;;;;;5072789;28;20036;-57
2021/01/13 10:49:01;;;;;;;15.50;10.23;;;7.50;68.60;;;;;;5079251;28;20036;-54
2021/01/13 10:51:36;;;;;;;12.67;10.80;;;7.60;67.80;;;;;;5070575;28;20078;-57
2021/01/13 10:54:05;;;;;;;21.50;11.82;;;7.60;68.20;;;;;;5075673;28;20048;-57
2021/01/13 10:56:33;;;;;;;17.80;9.93;;;7.70;67.80;;;;;;5070497;28;20060;-56
2021/01/13 10:59:03;;;;;;;18.33;11.13;;;7.60;68.20;;;;;;5077538;28;20124;-56
2021/01/13 11:01:30;;;;;;;13.93;9.47;;;7.70;67.30;;;;;;5071650;28;20056;-56
2021/01/13 11:03:57;;;;;;;15.20;9.57;;;7.70;67.40;;;;;;5078327;28;20127;-54
2021/01/13 11:06:24;;;;;;;14.17;10.53;;;7.80;67.80;;;;;;5071584;28;20045;-54
2021/01/13 11:08:53;;;;;;;13.10;10.33;;;7.90;67.90;;;;;;5081843;28;20440;-54
2021/01/13 11:11:22;;;;;;;15.93;11.03;;;7.90;67.70;;;;;;5076838;28;20256;-57
2021/01/13 11:13:47;;;;;;;16.93;11.40;;;7.90;67.50;;;;;;5082901;28;20036;-56
2021/01/13 11:16:14;;;;;;;17.63;10.90;;;7.90;68.00;;;;;;5080920;28;20041;-56
2021/01/13 11:18:41;;;;;;;17.83;10.60;;;8.00;68.30;;;;;;5084232;28;20410;-57
2021/01/13 11:21:08;;;;;;;20.93;12.10;;;8.00;67.90;;;;;;5078433;28;20032;-55
2021/01/13 11:23:45;;;;;;;16.03;11.30;;;8.00;69.00;;;;;;5082138;28;20161;-55
2021/01/13 11:26:11;;;;;;;17.87;11.87;;;8.10;68.60;;;;;;5064467;28;20451;-56
2021/01/13 11:28:39;;;;;;;16.60;11.50;;;8.10;69.30;;;;;;5070824;28;20126;-55
2021/01/13 11:31:05;;;;;;;18.43;11.37;;;8.20;68.70;;;;;;5078219;28;20044;-54
2021/01/13 11:33:32;;;;;;;17.90;11.00;;;8.20;68.20;;;;;;5080811;28;20092;-53
2021/01/13 11:35:57;;;;;;;15.13;11.27;;;8.30;67.80;;;;;;5080279;28;20035;-51
2021/01/13 11:38:57;;;;;;;18.00;10.47;;;8.30;68.20;;;;;;5076307;28;20435;-51
2021/01/13 11:41:52;;;;;;;12.57;9.80;;;8.50;66.50;;;;;;5059314;28;20043;-53
2021/01/13 11:44:36;;;;;;;10.93;7.38;;;8.50;66.40;;;;;;5042731;28;20079;-52
2021/01/13 11:47:21;;;;;;;17.00;10.77;;;8.60;67.00;;;;;;5025747;28;20045;-52
2021/01/13 11:49:59;;;;;;;13.60;8.77;;;8.70;66.90;;;;;;5083938;28;20043;-55
2021/01/13 11:52:32;;;;;;;12.40;9.30;;;8.70;66.60;;;;;;5078088;28;20452;-56
2021/01/13 11:54:58;;;;;;;13.57;8.97;;;8.80;66.40;;;;;;5083467;28;20048;-56
2021/01/13 11:57:28;;;;;;;15.37;10.23;;;8.90;66.10;;;;;;5078246;28;20040;-52
2021/01/13 12:00:15;;;;;;;12.73;8.53;;;8.80;67.70;;;;;;5084685;28;20054;-54
2021/01/13 12:02:45;;;;;;;12.00;9.40;;;8.90;67.20;;;;;;5052691;28;20047;-53
2021/01/13 12:05:41;;;;;;;13.10;9.30;;;8.90;67.00;;;;;;5078486;28;20079;-55
2021/01/13 12:08:13;;;;;;;14.50;10.07;;;9.00;67.20;;;;;;5047977;28;20047;-56
2021/01/13 12:10:40;;;;;;;16.47;11.17;;;9.00;67.40;;;;;;5079171;28;20049;-54
2021/01/13 12:13:12;;;;;;;14.37;10.87;;;9.00;67.60;;;;;;5078134;28;20044;-56
2021/01/13 12:15:50;;;;;;;16.23;11.03;;;9.10;65.60;;;;;;5084288;28;20041;-56
2021/01/13 12:18:23;;;;;;;14.90;10.90;;;9.10;66.60;;;;;;5080802;28;20094;-56
2021/01/13 12:20:51;;;;;;;20.03;13.00;;;9.10;68.70;;;;;;5084750;28;20043;-52
2021/01/13 12:23:31;;;;;;;16.83;11.50;;;9.10;68.60;;;;;;5076345;28;20094;-55
2021/01/13 12:26:19;;;;;;;16.30;10.87;;;9.20;66.60;;;;;;5083682;28;20037;-55
2021/01/13 12:28:46;;;;;;;14.67;10.13;;;9.10;66.60;;;;;;5076134;28;20406;-56
2021/01/13 12:31:13;;;;;;;17.13;9.90;;;9.30;64.70;;;;;;5080343;28;20522;-57
2021/01/13 12:33:50;;;;;;;16.63;10.43;;;9.50;64.20;;;;;;5078388;28;20039;-55
2021/01/13 12:36:43;;;;;;;17.33;10.90;;;9.60;63.50;;;;;;5084295;28;20469;-56
2021/01/13 12:39:21;;;;;;;16.37;10.57;;;9.50;63.90;;;;;;5031965;28;20075;-56
2021/01/13 12:41:49;;;;;;;17.47;11.70;;;9.60;63.80;;;;;;5083704;28;20047;-54
2021/01/13 12:44:15;;;;;;;17.10;11.77;;;9.60;64.00;;;;;;5080763;28;20052;-56
2021/01/13 12:46:51;;;;;;;17.10;12.30;;;9.70;64.10;;;;;;5084429;28;20043;-55
2021/01/13 12:49:16;;;;;;;15.87;10.80;;;9.60;64.20;;;;;;5074492;28;20056;-52
2021/01/13 12:51:42;;;;;;;22.13;12.43;;;9.60;65.60;;;;;;5078633;28;20046;-56
2021/01/13 12:54:08;;;;;;;17.23;11.70;;;9.50;66.40;;;;;;5080224;28;20055;-55
2021/01/13 12:56:36;;;;;;;17.20;11.40;;;9.60;65.60;;;;;;5080042;28;20047;-55
2021/01/13 12:59:03;;;;;;;16.43;11.27;;;9.80;64.20;;;;;;5079287;28;20402;-55
2021/01/13 13:01:36;;;;;;;15.87;11.17;;;9.80;64.90;;;;;;5076364;28;20032;-56
2021/01/13 13:04:02;;;;;;;14.60;9.57;;;9.70;64.80;;;;;;5063202;28;20032;-52
2021/01/13 13:06:29;;;;;;;15.70;10.10;;;9.80;63.80;;;;;;5073506;28;20033;-53
2021/01/13 13:08:57;;;;;;;18.50;10.73;;;9.80;65.10;;;;;;5079258;28;20043;-54